sensor_id;sensor_type;location;lat;lon;timestamp;P1;durP1;ratioP1;P2;durP2;ratioP2
25758;SDS011;13604;52.496;13.456;2023-11-19T00:00:47;15.80;;;9.27;;
25758;SDS011;13604;52.496;13.456;2023-11-19T00:03:12;13.23;;;8.48;;
25758;SDS011;13604;52.496;13.456;2023-11-19T00:05:38;19.92;;;11.40;;
25758;SDS011;13604;52.496;13.456;2023-11-19T00:08:03;13.40;;;8.88;;
25758;SDS011;13604;52.496;13.456;2023-11-19T00:10:30;12.73;;;8.60;;
25758;SDS011;13604;52.496;13.456;2023-11-19T00:12:56;12.38;;;8.32;;
25758;SDS011;13604;52.496;13.456;2023-11-19T00:15:22;14.63;;;8.65;;
25758;SDS011;13604;52.496;13.456;2023-11-19T00:17:49;15.63;;;8.82;;
25758;SDS011;13604;52.496;13.456;2023-11-19T00:20:15;14.38;;;8.75;;
25758;SDS011;13604;52.496;13.456;2023-11-19T00:22:41;18.52;;;9.48;;
25758;SDS011;13604;52.496;13.456;2023-11-19T00:25:08;15.82;;;9.57;;
25758;SDS011;13604;52.496;13.456;2023-11-19T00:27:33;15.38;;;8.98;;
25758;SDS011;13604;52.496;13.456;2023-11-19T00:29:58;15.38;;;7.85;;
25758;SDS011;13604;52.496;13.456;2023-11-19T00:32:24;15.10;;;8.50;;
25758;SDS011;13604;52.496;13.456;2023-11-19T00:34:49;13.65;;;8.52;;
25758;SDS011;13604;52.496;13.456;2023-11-19T00:37:15;15.68;;;8.38;;
25758;SDS011;13604;52.496;13.456;2023-11-19T00:39:41;13.60;;;8.70;;
25758;SDS011;13604;52.496;13.456;2023-11-19T00:42:07;14.93;;;7.93;;
25758;SDS011;13604;52.496;13.456;2023-11-19T00:44:32;11.40;;;8.10;;
25758;SDS011;13604;52.496;13.456;2023-11-19T00:46:57;18.90;;;8.80;;
25758;SDS011;13604;52.496;13.456;2023-11-19T00:49:24;14.88;;;8.43;;
25758;SDS011;13604;52.496;13.456;2023-11-19T00:51:49;13.02;;;7.97;;
25758;SDS011;13604;52.496;13.456;2023-11-19T00:54:15;10.60;;;7.50;;
25758;SDS011;13604;52.496;13.456;2023-11-19T00:56:40;12.63;;;7.70;;
25758;SDS011;13604;52.496;13.456;2023-11-19T00:59:05;14.30;;;7.80;;
25758;SDS011;13604;52.496;13.456;2023-11-19T01:01:31;13.13;;;7.82;;
25758;SDS011;13604;52.496;13.456;2023-11-19T01:03:56;13.60;;;7.93;;
25758;SDS011;13604;52.496;13.456;2023-11-19T01:06:30;10.98;;;7.35;;
25758;SDS011;13604;52.496;13.456;2023-11-19T01:08:56;10.45;;;7.57;;
25758;SDS011;13604;52.496;13.456;2023-11-19T01:11:22;15.82;;;7.93;;
25758;SDS011;13604;52.496;13.456;2023-11-19T01:13:48;12.73;;;8.23;;
25758;SDS011;13604;52.496;13.456;2023-11-19T01:16:13;12.95;;;7.47;;
25758;SDS011;13604;52.496;13.456;2023-11-19T01:18:39;12.48;;;7.25;;
25758;SDS011;13604;52.496;13.456;2023-11-19T01:21:04;13.38;;;7.97;;
25758;SDS011;13604;52.496;13.456;2023-11-19T01:23:30;11.05;;;7.63;;
25758;SDS011;13604;52.496;13.456;2023-11-19T01:25:55;12.80;;;7.18;;
25758;SDS011;13604;52.496;13.456;2023-11-19T01:28:21;11.48;;;7.10;;
25758;SDS011;13604;52.496;13.456;2023-11-19T01:30:46;11.23;;;7.65;;
25758;SDS011;13604;52.496;13.456;2023-11-19T01:33:11;13.70;;;7.25;;
25758;SDS011;13604;52.496;13.456;2023-11-19T01:35:37;9.07;;;6.40;;
25758;SDS011;13604;52.496;13.456;2023-11-19T01:38:02;9.85;;;6.93;;
25758;SDS011;13604;52.496;13.456;2023-11-19T01:40:27;12.00;;;7.10;;
25758;SDS011;13604;52.496;13.456;2023-11-19T01:42:52;11.10;;;7.07;;
25758;SDS011;13604;52.496;13.456;2023-11-19T01:45:21;8.95;;;6.43;;
25758;SDS011;13604;52.496;13.456;2023-11-19T01:47:51;11.30;;;7.07;;
25758;SDS011;13604;52.496;13.456;2023-11-19T01:50:17;14.13;;;7.47;;
25758;SDS011;13604;52.496;13.456;2023-11-19T01:52:42;10.80;;;6.75;;
25758;SDS011;13604;52.496;13.456;2023-11-19T01:55:07;10.35;;;7.05;;
25758;SDS011;13604;52.496;13.456;2023-11-19T01:57:35;15.35;;;7.15;;
25758;SDS011;13604;52.496;13.456;2023-11-19T02:00:02;11.85;;;6.65;;
25758;SDS011;13604;52.496;13.456;2023-11-19T02:02:28;13.32;;;7.28;;
25758;SDS011;13604;52.496;13.456;2023-11-19T02:04:54;11.93;;;7.20;;
25758;SDS011;13604;52.496;13.456;2023-11-19T02:07:20;10.75;;;7.35;;
25758;SDS011;13604;52.496;13.456;2023-11-19T02:09:46;13.15;;;7.15;;
25758;SDS011;13604;52.496;13.456;2023-11-19T02:12:11;10.75;;;6.78;;
25758;SDS011;13604;52.496;13.456;2023-11-19T02:14:37;11.82;;;7.53;;
25758;SDS011;13604;52.496;13.456;2023-11-19T02:17:03;8.45;;;6.25;;
25758;SDS011;13604;52.496;13.456;2023-11-19T02:19:28;11.85;;;7.30;;
25758;SDS011;13604;52.496;13.456;2023-11-19T02:21:54;10.27;;;6.90;;
25758;SDS011;13604;52.496;13.456;2023-11-19T02:24:20;11.65;;;7.18;;
25758;SDS011;13604;52.496;13.456;2023-11-19T02:26:52;11.88;;;7.63;;
25758;SDS011;13604;52.496;13.456;2023-11-19T02:29:24;10.80;;;6.97;;
25758;SDS011;13604;52.496;13.456;2023-11-19T02:31:49;13.85;;;7.53;;
25758;SDS011;13604;52.496;13.456;2023-11-19T02:34:14;8.80;;;6.43;;
25758;SDS011;13604;52.496;13.456;2023-11-19T02:36:41;10.90;;;7.28;;
25758;SDS011;13604;52.496;13.456;2023-11-19T02:39:07;10.88;;;7.15;;
25758;SDS011;13604;52.496;13.456;2023-11-19T02:41:36;14.43;;;7.13;;
25758;SDS011;13604;52.496;13.456;2023-11-19T02:44:01;8.18;;;6.40;;
25758;SDS011;13604;52.496;13.456;2023-11-19T02:46:26;9.27;;;6.38;;
25758;SDS011;13604;52.496;13.456;2023-11-19T02:48:51;9.32;;;6.05;;
25758;SDS011;13604;52.496;13.456;2023-11-19T02:51:17;10.00;;;6.68;;
25758;SDS011;13604;52.496;13.456;2023-11-19T02:53:43;11.30;;;6.22;;
25758;SDS011;13604;52.496;13.456;2023-11-19T02:56:09;9.05;;;5.97;;
25758;SDS011;13604;52.496;13.456;2023-11-19T02:58:45;10.18;;;6.95;;
25758;SDS011;13604;52.496;13.456;2023-11-19T03:01:11;7.63;;;5.47;;
25758;SDS011;13604;52.496;13.456;2023-11-19T03:03:47;9.52;;;5.43;;
25758;SDS011;13604;52.496;13.456;2023-11-19T03:06:19;7.68;;;5.68;;
25758;SDS011;13604;52.496;13.456;2023-11-19T03:08:44;7.78;;;5.43;;
25758;SDS011;13604;52.496;13.456;2023-11-19T03:11:09;7.13;;;5.50;;
25758;SDS011;13604;52.496;13.456;2023-11-19T03:13:35;8.98;;;5.07;;
25758;SDS011;13604;52.496;13.456;2023-11-19T03:16:00;8.65;;;5.25;;
25758;SDS011;13604;52.496;13.456;2023-11-19T03:18:25;8.45;;;5.40;;
25758;SDS011;13604;52.496;13.456;2023-11-19T03:20:51;8.82;;;5.30;;
25758;SDS011;13604;52.496;13.456;2023-11-19T03:23:17;6.93;;;4.90;;
25758;SDS011;13604;52.496;13.456;2023-11-19T03:25:42;7.82;;;5.25;;
25758;SDS011;13604;52.496;13.456;2023-11-19T03:28:08;8.30;;;4.70;;
25758;SDS011;13604;52.496;13.456;2023-11-19T03:30:33;10.23;;;5.38;;
25758;SDS011;13604;52.496;13.456;2023-11-19T03:32:59;8.73;;;5.47;;
25758;SDS011;13604;52.496;13.456;2023-11-19T03:35:27;8.60;;;5.43;;
25758;SDS011;13604;52.496;13.456;2023-11-19T03:37:53;7.35;;;4.78;;
25758;SDS011;13604;52.496;13.456;2023-11-19T03:40:18;10.18;;;6.00;;
25758;SDS011;13604;52.496;13.456;2023-11-19T03:42:44;9.20;;;5.75;;
25758;SDS011;13604;52.496;13.456;2023-11-19T03:45:10;9.55;;;6.00;;
25758;SDS011;13604;52.496;13.456;2023-11-19T03:47:35;10.40;;;6.70;;
25758;SDS011;13604;52.496;13.456;2023-11-19T03:50:01;10.90;;;7.60;;
25758;SDS011;13604;52.496;13.456;2023-11-19T03:52:27;15.80;;;7.70;;
25758;SDS011;13604;52.496;13.456;2023-11-19T03:54:52;12.18;;;8.25;;
25758;SDS011;13604;52.496;13.456;2023-11-19T03:57:18;14.00;;;8.75;;
25758;SDS011;13604;52.496;13.456;2023-11-19T03:59:43;14.73;;;8.85;;
25758;SDS011;13604;52.496;13.456;2023-11-19T04:02:09;20.58;;;9.50;;
25758;SDS011;13604;52.496;13.456;2023-11-19T04:04:35;16.48;;;9.10;;
25758;SDS011;13604;52.496;13.456;2023-11-19T04:07:01;15.95;;;9.80;;
25758;SDS011;13604;52.496;13.456;2023-11-19T04:09:27;18.42;;;10.35;;
25758;SDS011;13604;52.496;13.456;2023-11-19T04:11:53;21.67;;;11.60;;
25758;SDS011;13604;52.496;13.456;2023-11-19T04:14:18;20.13;;;11.48;;
25758;SDS011;13604;52.496;13.456;2023-11-19T04:16:44;19.38;;;11.57;;
25758;SDS011;13604;52.496;13.456;2023-11-19T04:19:10;21.10;;;11.10;;
25758;SDS011;13604;52.496;13.456;2023-11-19T04:21:36;25.05;;;12.23;;
25758;SDS011;13604;52.496;13.456;2023-11-19T04:24:01;23.73;;;13.43;;
25758;SDS011;13604;52.496;13.456;2023-11-19T04:26:26;23.85;;;13.68;;
25758;SDS011;13604;52.496;13.456;2023-11-19T04:28:51;24.42;;;13.05;;
25758;SDS011;13604;52.496;13.456;2023-11-19T04:31:17;26.73;;;13.60;;
25758;SDS011;13604;52.496;13.456;2023-11-19T04:33:42;25.73;;;13.00;;
25758;SDS011;13604;52.496;13.456;2023-11-19T04:36:08;26.35;;;12.88;;
25758;SDS011;13604;52.496;13.456;2023-11-19T04:38:34;28.70;;;14.90;;
25758;SDS011;13604;52.496;13.456;2023-11-19T04:41:00;22.45;;;12.98;;
25758;SDS011;13604;52.496;13.456;2023-11-19T04:43:25;27.00;;;14.40;;
25758;SDS011;13604;52.496;13.456;2023-11-19T04:45:50;29.98;;;14.20;;
25758;SDS011;13604;52.496;13.456;2023-11-19T04:48:16;24.23;;;13.70;;
25758;SDS011;13604;52.496;13.456;2023-11-19T04:50:41;24.85;;;14.95;;
25758;SDS011;13604;52.496;13.456;2023-11-19T04:53:06;28.70;;;14.68;;
25758;SDS011;13604;52.496;13.456;2023-11-19T04:55:32;33.83;;;15.52;;
25758;SDS011;13604;52.496;13.456;2023-11-19T04:57:57;33.55;;;15.73;;
25758;SDS011;13604;52.496;13.456;2023-11-19T05:00:22;32.25;;;16.42;;
25758;SDS011;13604;52.496;13.456;2023-11-19T05:02:48;38.80;;;17.50;;
25758;SDS011;13604;52.496;13.456;2023-11-19T05:05:15;38.60;;;16.60;;
25758;SDS011;13604;52.496;13.456;2023-11-19T05:07:40;35.78;;;16.23;;
25758;SDS011;13604;52.496;13.456;2023-11-19T05:10:06;34.55;;;17.23;;
25758;SDS011;13604;52.496;13.456;2023-11-19T05:12:32;58.40;;;19.20;;
25758;SDS011;13604;52.496;13.456;2023-11-19T05:14:57;31.88;;;16.05;;
25758;SDS011;13604;52.496;13.456;2023-11-19T05:17:23;32.65;;;17.80;;
25758;SDS011;13604;52.496;13.456;2023-11-19T05:19:48;36.35;;;18.00;;
25758;SDS011;13604;52.496;13.456;2023-11-19T05:22:14;40.28;;;18.33;;
25758;SDS011;13604;52.496;13.456;2023-11-19T05:24:39;44.53;;;19.42;;
25758;SDS011;13604;52.496;13.456;2023-11-19T05:27:05;42.50;;;18.83;;
25758;SDS011;13604;52.496;13.456;2023-11-19T05:29:31;43.63;;;18.27;;
25758;SDS011;13604;52.496;13.456;2023-11-19T05:31:57;45.65;;;18.70;;
25758;SDS011;13604;52.496;13.456;2023-11-19T05:34:22;42.70;;;18.05;;
25758;SDS011;13604;52.496;13.456;2023-11-19T05:36:47;42.75;;;19.80;;
25758;SDS011;13604;52.496;13.456;2023-11-19T05:39:13;41.60;;;19.15;;
25758;SDS011;13604;52.496;13.456;2023-11-19T05:41:38;39.78;;;19.65;;
25758;SDS011;13604;52.496;13.456;2023-11-19T05:44:04;37.22;;;18.23;;
25758;SDS011;13604;52.496;13.456;2023-11-19T05:46:29;39.90;;;19.55;;
25758;SDS011;13604;52.496;13.456;2023-11-19T05:48:54;35.20;;;18.17;;
25758;SDS011;13604;52.496;13.456;2023-11-19T05:51:20;37.15;;;18.33;;
25758;SDS011;13604;52.496;13.456;2023-11-19T05:53:45;35.65;;;18.80;;
25758;SDS011;13604;52.496;13.456;2023-11-19T05:56:15;38.50;;;18.80;;
25758;SDS011;13604;52.496;13.456;2023-11-19T05:58:41;34.65;;;18.50;;
25758;SDS011;13604;52.496;13.456;2023-11-19T06:01:06;38.88;;;19.25;;
25758;SDS011;13604;52.496;13.456;2023-11-19T06:03:32;36.20;;;19.08;;
25758;SDS011;13604;52.496;13.456;2023-11-19T06:05:58;36.15;;;18.27;;
25758;SDS011;13604;52.496;13.456;2023-11-19T06:08:23;28.67;;;16.15;;
25758;SDS011;13604;52.496;13.456;2023-11-19T06:10:48;33.13;;;17.30;;
25758;SDS011;13604;52.496;13.456;2023-11-19T06:13:16;38.60;;;18.85;;
25758;SDS011;13604;52.496;13.456;2023-11-19T06:15:41;39.47;;;20.23;;
25758;SDS011;13604;52.496;13.456;2023-11-19T06:18:07;37.03;;;18.45;;
25758;SDS011;13604;52.496;13.456;2023-11-19T06:20:33;38.17;;;19.85;;
25758;SDS011;13604;52.496;13.456;2023-11-19T06:22:59;41.58;;;18.65;;
25758;SDS011;13604;52.496;13.456;2023-11-19T06:25:25;35.80;;;17.92;;
25758;SDS011;13604;52.496;13.456;2023-11-19T06:27:51;39.55;;;19.42;;
25758;SDS011;13604;52.496;13.456;2023-11-19T06:30:17;36.45;;;18.95;;
25758;SDS011;13604;52.496;13.456;2023-11-19T06:32:42;37.78;;;20.23;;
25758;SDS011;13604;52.496;13.456;2023-11-19T06:35:08;36.20;;;18.00;;
25758;SDS011;13604;52.496;13.456;2023-11-19T06:37:34;36.53;;;18.13;;
25758;SDS011;13604;52.496;13.456;2023-11-19T06:39:59;34.47;;;18.02;;
25758;SDS011;13604;52.496;13.456;2023-11-19T06:42:25;33.17;;;17.63;;
25758;SDS011;13604;52.496;13.456;2023-11-19T06:44:50;34.42;;;17.38;;
25758;SDS011;13604;52.496;13.456;2023-11-19T06:47:16;37.40;;;18.33;;
25758;SDS011;13604;52.496;13.456;2023-11-19T06:49:43;32.72;;;16.40;;
25758;SDS011;13604;52.496;13.456;2023-11-19T06:52:09;35.08;;;17.80;;
25758;SDS011;13604;52.496;13.456;2023-11-19T06:54:34;34.58;;;17.15;;
25758;SDS011;13604;52.496;13.456;2023-11-19T06:56:59;33.83;;;17.85;;
25758;SDS011;13604;52.496;13.456;2023-11-19T06:59:25;31.80;;;17.00;;
25758;SDS011;13604;52.496;13.456;2023-11-19T07:01:50;38.70;;;18.38;;
25758;SDS011;13604;52.496;13.456;2023-11-19T07:04:15;33.05;;;17.50;;
25758;SDS011;13604;52.496;13.456;2023-11-19T07:06:41;33.78;;;17.70;;
25758;SDS011;13604;52.496;13.456;2023-11-19T07:09:06;35.33;;;18.05;;
25758;SDS011;13604;52.496;13.456;2023-11-19T07:11:35;30.88;;;16.40;;
25758;SDS011;13604;52.496;13.456;2023-11-19T07:14:01;36.30;;;17.65;;
25758;SDS011;13604;52.496;13.456;2023-11-19T07:16:28;33.63;;;17.45;;
25758;SDS011;13604;52.496;13.456;2023-11-19T07:18:53;34.22;;;17.40;;
25758;SDS011;13604;52.496;13.456;2023-11-19T07:21:19;32.05;;;17.42;;
25758;SDS011;13604;52.496;13.456;2023-11-19T07:23:44;36.08;;;16.83;;
25758;SDS011;13604;52.496;13.456;2023-11-19T07:26:10;29.20;;;15.52;;
25758;SDS011;13604;52.496;13.456;2023-11-19T07:28:35;27.25;;;15.95;;
25758;SDS011;13604;52.496;13.456;2023-11-19T07:31:01;33.45;;;17.38;;
25758;SDS011;13604;52.496;13.456;2023-11-19T07:33:26;33.38;;;15.90;;
25758;SDS011;13604;52.496;13.456;2023-11-19T07:35:52;35.22;;;17.30;;
25758;SDS011;13604;52.496;13.456;2023-11-19T07:38:17;32.17;;;16.15;;
25758;SDS011;13604;52.496;13.456;2023-11-19T07:40:43;32.92;;;16.80;;
25758;SDS011;13604;52.496;13.456;2023-11-19T07:43:08;32.70;;;17.88;;
25758;SDS011;13604;52.496;13.456;2023-11-19T07:45:33;33.78;;;17.80;;
25758;SDS011;13604;52.496;13.456;2023-11-19T07:47:59;36.63;;;16.77;;
25758;SDS011;13604;52.496;13.456;2023-11-19T07:50:26;31.58;;;17.10;;
25758;SDS011;13604;52.496;13.456;2023-11-19T07:52:51;35.05;;;18.83;;
25758;SDS011;13604;52.496;13.456;2023-11-19T07:55:17;39.22;;;19.13;;
25758;SDS011;13604;52.496;13.456;2023-11-19T07:57:42;38.03;;;18.73;;
25758;SDS011;13604;52.496;13.456;2023-11-19T08:00:07;31.63;;;16.95;;
25758;SDS011;13604;52.496;13.456;2023-11-19T08:02:37;33.50;;;16.77;;
25758;SDS011;13604;52.496;13.456;2023-11-19T08:05:02;37.67;;;18.55;;
25758;SDS011;13604;52.496;13.456;2023-11-19T08:07:28;49.22;;;21.15;;
25758;SDS011;13604;52.496;13.456;2023-11-19T08:09:53;38.88;;;18.58;;
25758;SDS011;13604;52.496;13.456;2023-11-19T08:12:18;45.80;;;20.52;;
25758;SDS011;13604;52.496;13.456;2023-11-19T08:14:43;36.00;;;18.35;;
25758;SDS011;13604;52.496;13.456;2023-11-19T08:17:09;38.97;;;18.88;;
25758;SDS011;13604;52.496;13.456;2023-11-19T08:19:34;38.78;;;18.30;;
25758;SDS011;13604;52.496;13.456;2023-11-19T08:22:00;36.38;;;17.85;;
25758;SDS011;13604;52.496;13.456;2023-11-19T08:24:25;29.00;;;14.93;;
25758;SDS011;13604;52.496;13.456;2023-11-19T08:26:50;30.13;;;16.45;;
25758;SDS011;13604;52.496;13.456;2023-11-19T08:29:16;40.67;;;19.63;;
25758;SDS011;13604;52.496;13.456;2023-11-19T08:31:41;37.90;;;18.80;;
25758;SDS011;13604;52.496;13.456;2023-11-19T08:34:07;39.78;;;19.15;;
25758;SDS011;13604;52.496;13.456;2023-11-19T08:36:34;37.15;;;19.90;;
25758;SDS011;13604;52.496;13.456;2023-11-19T08:38:59;34.45;;;19.42;;
25758;SDS011;13604;52.496;13.456;2023-11-19T08:41:24;40.47;;;19.70;;
25758;SDS011;13604;52.496;13.456;2023-11-19T08:43:50;44.05;;;20.50;;
25758;SDS011;13604;52.496;13.456;2023-11-19T08:46:16;41.05;;;20.02;;
25758;SDS011;13604;52.496;13.456;2023-11-19T08:48:42;42.10;;;19.58;;
25758;SDS011;13604;52.496;13.456;2023-11-19T08:51:07;40.05;;;19.17;;
25758;SDS011;13604;52.496;13.456;2023-11-19T08:53:32;37.47;;;18.58;;
25758;SDS011;13604;52.496;13.456;2023-11-19T08:55:57;36.95;;;17.90;;
25758;SDS011;13604;52.496;13.456;2023-11-19T08:58:23;33.47;;;17.45;;
25758;SDS011;13604;52.496;13.456;2023-11-19T09:00:48;39.42;;;19.67;;
25758;SDS011;13604;52.496;13.456;2023-11-19T09:03:13;39.92;;;19.00;;
25758;SDS011;13604;52.496;13.456;2023-11-19T09:05:39;35.55;;;18.63;;
25758;SDS011;13604;52.496;13.456;2023-11-19T09:08:04;34.88;;;17.58;;
25758;SDS011;13604;52.496;13.456;2023-11-19T09:10:30;35.35;;;18.20;;
25758;SDS011;13604;52.496;13.456;2023-11-19T09:12:55;37.15;;;18.70;;
25758;SDS011;13604;52.496;13.456;2023-11-19T09:15:20;30.27;;;16.65;;
25758;SDS011;13604;52.496;13.456;2023-11-19T09:17:45;32.78;;;16.70;;
25758;SDS011;13604;52.496;13.456;2023-11-19T09:20:11;25.20;;;14.02;;
25758;SDS011;13604;52.496;13.456;2023-11-19T09:22:39;28.50;;;16.85;;
25758;SDS011;13604;52.496;13.456;2023-11-19T09:25:05;26.30;;;15.07;;
25758;SDS011;13604;52.496;13.456;2023-11-19T09:27:30;34.50;;;18.77;;
25758;SDS011;13604;52.496;13.456;2023-11-19T09:29:56;36.25;;;18.85;;
25758;SDS011;13604;52.496;13.456;2023-11-19T09:32:23;34.97;;;18.88;;
25758;SDS011;13604;52.496;13.456;2023-11-19T09:34:48;31.48;;;17.40;;
25758;SDS011;13604;52.496;13.456;2023-11-19T09:37:13;28.45;;;17.40;;
25758;SDS011;13604;52.496;13.456;2023-11-19T09:39:39;33.35;;;16.85;;
25758;SDS011;13604;52.496;13.456;2023-11-19T09:42:08;22.52;;;14.63;;
25758;SDS011;13604;52.496;13.456;2023-11-19T09:44:33;23.98;;;13.57;;
25758;SDS011;13604;52.496;13.456;2023-11-19T09:46:58;25.25;;;13.25;;
25758;SDS011;13604;52.496;13.456;2023-11-19T09:49:24;25.38;;;13.98;;
25758;SDS011;13604;52.496;13.456;2023-11-19T09:51:51;21.17;;;12.52;;
25758;SDS011;13604;52.496;13.456;2023-11-19T09:54:17;17.05;;;11.20;;
25758;SDS011;13604;52.496;13.456;2023-11-19T09:56:42;17.33;;;10.25;;
25758;SDS011;13604;52.496;13.456;2023-11-19T09:59:08;10.55;;;7.35;;
25758;SDS011;13604;52.496;13.456;2023-11-19T10:01:35;7.65;;;5.55;;
25758;SDS011;13604;52.496;13.456;2023-11-19T10:04:01;8.40;;;4.65;;
25758;SDS011;13604;52.496;13.456;2023-11-19T10:06:27;9.13;;;4.05;;
25758;SDS011;13604;52.496;13.456;2023-11-19T10:08:52;8.73;;;4.28;;
25758;SDS011;13604;52.496;13.456;2023-11-19T10:11:18;8.38;;;4.82;;
25758;SDS011;13604;52.496;13.456;2023-11-19T10:13:43;7.88;;;4.32;;
25758;SDS011;13604;52.496;13.456;2023-11-19T10:16:10;12.50;;;5.43;;
25758;SDS011;13604;52.496;13.456;2023-11-19T10:18:37;6.55;;;4.60;;
25758;SDS011;13604;52.496;13.456;2023-11-19T10:21:07;12.48;;;5.25;;
25758;SDS011;13604;52.496;13.456;2023-11-19T10:23:52;11.55;;;4.97;;
25758;SDS011;13604;52.496;13.456;2023-11-19T10:26:19;7.95;;;4.68;;
25758;SDS011;13604;52.496;13.456;2023-11-19T10:28:46;11.27;;;4.50;;
25758;SDS011;13604;52.496;13.456;2023-11-19T10:31:15;8.63;;;4.35;;
25758;SDS011;13604;52.496;13.456;2023-11-19T10:33:41;10.80;;;4.28;;
25758;SDS011;13604;52.496;13.456;2023-11-19T10:36:08;8.15;;;4.07;;
25758;SDS011;13604;52.496;13.456;2023-11-19T10:38:34;10.13;;;4.18;;
25758;SDS011;13604;52.496;13.456;2023-11-19T10:41:00;9.40;;;4.13;;
25758;SDS011;13604;52.496;13.456;2023-11-19T10:43:25;6.50;;;3.80;;
25758;SDS011;13604;52.496;13.456;2023-11-19T10:45:51;12.18;;;3.50;;
25758;SDS011;13604;52.496;13.456;2023-11-19T10:48:17;10.43;;;3.10;;
25758;SDS011;13604;52.496;13.456;2023-11-19T10:50:43;8.95;;;3.00;;
25758;SDS011;13604;52.496;13.456;2023-11-19T10:53:10;10.43;;;3.05;;
25758;SDS011;13604;52.496;13.456;2023-11-19T10:55:40;7.55;;;2.63;;
25758;SDS011;13604;52.496;13.456;2023-11-19T10:58:06;6.88;;;3.00;;
25758;SDS011;13604;52.496;13.456;2023-11-19T11:00:44;8.75;;;3.42;;
25758;SDS011;13604;52.496;13.456;2023-11-19T11:03:19;11.88;;;2.90;;
25758;SDS011;13604;52.496;13.456;2023-11-19T11:05:46;7.97;;;3.17;;
25758;SDS011;13604;52.496;13.456;2023-11-19T11:08:12;9.65;;;3.58;;
25758;SDS011;13604;52.496;13.456;2023-11-19T11:10:45;9.93;;;3.33;;
25758;SDS011;13604;52.496;13.456;2023-11-19T11:13:16;17.75;;;3.20;;
25758;SDS011;13604;52.496;13.456;2023-11-19T11:15:42;11.48;;;4.10;;
25758;SDS011;13604;52.496;13.456;2023-11-19T11:18:08;11.82;;;3.90;;
25758;SDS011;13604;52.496;13.456;2023-11-19T11:20:34;15.18;;;4.75;;
25758;SDS011;13604;52.496;13.456;2023-11-19T11:26:08;10.43;;;3.70;;
25758;SDS011;13604;52.496;13.456;2023-11-19T11:28:48;12.98;;;3.25;;
25758;SDS011;13604;52.496;13.456;2023-11-19T11:31:26;13.32;;;3.15;;
25758;SDS011;13604;52.496;13.456;2023-11-19T11:36:49;13.43;;;3.67;;
25758;SDS011;13604;52.496;13.456;2023-11-19T11:39:25;14.57;;;4.03;;
25758;SDS011;13604;52.496;13.456;2023-11-19T11:50:10;12.50;;;3.35;;
25758;SDS011;13604;52.496;13.456;2023-11-19T11:55:24;10.70;;;3.80;;
25758;SDS011;13604;52.496;13.456;2023-11-19T11:57:50;20.42;;;3.90;;
25758;SDS011;13604;52.496;13.456;2023-11-19T12:00:21;10.35;;;3.83;;
25758;SDS011;13604;52.496;13.456;2023-11-19T12:02:57;17.00;;;3.70;;
25758;SDS011;13604;52.496;13.456;2023-11-19T12:05:25;14.25;;;4.32;;
25758;SDS011;13604;52.496;13.456;2023-11-19T12:07:57;10.60;;;3.88;;
25758;SDS011;13604;52.496;13.456;2023-11-19T12:10:26;19.15;;;4.65;;
25758;SDS011;13604;52.496;13.456;2023-11-19T12:12:58;16.20;;;4.30;;
25758;SDS011;13604;52.496;13.456;2023-11-19T12:15:24;15.23;;;3.38;;
25758;SDS011;13604;52.496;13.456;2023-11-19T12:17:53;21.50;;;4.35;;
25758;SDS011;13604;52.496;13.456;2023-11-19T12:20:21;19.75;;;4.88;;
25758;SDS011;13604;52.496;13.456;2023-11-19T12:22:47;22.40;;;3.90;;
25758;SDS011;13604;52.496;13.456;2023-11-19T12:25:14;23.00;;;4.47;;
25758;SDS011;13604;52.496;13.456;2023-11-19T12:27:45;16.73;;;4.05;;
25758;SDS011;13604;52.496;13.456;2023-11-19T12:30:12;19.58;;;4.63;;
25758;SDS011;13604;52.496;13.456;2023-11-19T12:32:38;25.20;;;4.47;;
25758;SDS011;13604;52.496;13.456;2023-11-19T12:35:07;24.58;;;4.70;;
25758;SDS011;13604;52.496;13.456;2023-11-19T12:37:38;26.75;;;5.00;;
25758;SDS011;13604;52.496;13.456;2023-11-19T12:40:10;17.55;;;4.13;;
25758;SDS011;13604;52.496;13.456;2023-11-19T12:42:37;17.73;;;4.88;;
25758;SDS011;13604;52.496;13.456;2023-11-19T12:45:03;17.42;;;4.78;;
25758;SDS011;13604;52.496;13.456;2023-11-19T12:47:29;20.75;;;4.75;;
25758;SDS011;13604;52.496;13.456;2023-11-19T12:49:55;25.05;;;6.10;;
25758;SDS011;13604;52.496;13.456;2023-11-19T12:52:23;24.70;;;4.90;;
25758;SDS011;13604;52.496;13.456;2023-11-19T12:54:48;21.98;;;5.15;;
25758;SDS011;13604;52.496;13.456;2023-11-19T12:57:14;21.77;;;6.07;;
25758;SDS011;13604;52.496;13.456;2023-11-19T12:59:40;26.70;;;6.22;;
25758;SDS011;13604;52.496;13.456;2023-11-19T13:02:05;27.73;;;5.45;;
25758;SDS011;13604;52.496;13.456;2023-11-19T13:04:31;20.30;;;4.50;;
25758;SDS011;13604;52.496;13.456;2023-11-19T13:06:57;21.40;;;4.70;;
25758;SDS011;13604;52.496;13.456;2023-11-19T13:09:24;20.15;;;4.68;;
25758;SDS011;13604;52.496;13.456;2023-11-19T13:11:50;23.58;;;5.53;;
25758;SDS011;13604;52.496;13.456;2023-11-19T13:14:16;23.52;;;5.03;;
25758;SDS011;13604;52.496;13.456;2023-11-19T13:16:42;22.50;;;5.00;;
25758;SDS011;13604;52.496;13.456;2023-11-19T13:19:07;19.23;;;4.18;;
25758;SDS011;13604;52.496;13.456;2023-11-19T13:21:34;21.42;;;4.25;;
25758;SDS011;13604;52.496;13.456;2023-11-19T13:23:59;17.17;;;3.80;;
25758;SDS011;13604;52.496;13.456;2023-11-19T13:26:24;20.08;;;4.22;;
25758;SDS011;13604;52.496;13.456;2023-11-19T13:28:50;18.55;;;4.22;;
25758;SDS011;13604;52.496;13.456;2023-11-19T13:31:15;18.55;;;5.00;;
25758;SDS011;13604;52.496;13.456;2023-11-19T13:33:41;18.52;;;4.68;;
25758;SDS011;13604;52.496;13.456;2023-11-19T13:36:06;20.92;;;4.50;;
25758;SDS011;13604;52.496;13.456;2023-11-19T13:38:35;20.90;;;4.22;;
25758;SDS011;13604;52.496;13.456;2023-11-19T13:41:01;30.30;;;5.03;;
25758;SDS011;13604;52.496;13.456;2023-11-19T13:43:27;27.52;;;4.53;;
25758;SDS011;13604;52.496;13.456;2023-11-19T13:45:53;22.48;;;5.45;;
25758;SDS011;13604;52.496;13.456;2023-11-19T13:48:19;21.70;;;4.25;;
25758;SDS011;13604;52.496;13.456;2023-11-19T13:50:44;23.83;;;5.10;;
25758;SDS011;13604;52.496;13.456;2023-11-19T13:53:10;25.60;;;5.70;;
25758;SDS011;13604;52.496;13.456;2023-11-19T13:55:35;19.92;;;4.57;;
25758;SDS011;13604;52.496;13.456;2023-11-19T13:58:00;24.25;;;5.35;;
25758;SDS011;13604;52.496;13.456;2023-11-19T14:00:26;24.40;;;5.43;;
25758;SDS011;13604;52.496;13.456;2023-11-19T14:02:51;22.08;;;5.10;;
25758;SDS011;13604;52.496;13.456;2023-11-19T14:05:17;27.55;;;5.55;;
25758;SDS011;13604;52.496;13.456;2023-11-19T14:07:43;24.60;;;5.50;;
25758;SDS011;13604;52.496;13.456;2023-11-19T14:10:09;21.52;;;5.22;;
25758;SDS011;13604;52.496;13.456;2023-11-19T14:12:35;33.05;;;6.03;;
25758;SDS011;13604;52.496;13.456;2023-11-19T14:15:04;24.42;;;6.30;;
25758;SDS011;13604;52.496;13.456;2023-11-19T14:17:34;34.80;;;6.57;;
25758;SDS011;13604;52.496;13.456;2023-11-19T14:20:00;29.63;;;6.13;;
25758;SDS011;13604;52.496;13.456;2023-11-19T14:22:25;35.22;;;6.25;;
25758;SDS011;13604;52.496;13.456;2023-11-19T14:24:51;28.50;;;6.32;;
25758;SDS011;13604;52.496;13.456;2023-11-19T14:27:16;30.30;;;5.70;;
25758;SDS011;13604;52.496;13.456;2023-11-19T14:29:44;28.10;;;5.63;;